Hood Army Air Field Fort Hood(Killeen) US
ICAO: KHLR
IATA: HLR
Category: Medium
Scheduled Services: No

Elevation: 924 ft
TransAlt. 18000 ft.

Airport Communications:
GRAY APP/DEP:120.075
CLNC DEL:22.54
GND:133.85
RANGE CON:30.45
FORT HOOD FLT FLW:143.1
PMSV GRAY METRO:41.2
TWR:119.65

KHLR Zoom In..

Runways:

(A) RW 16 length 3701 ft width 144 ft
---- / hdg 158

(B) RW 34 length 3701 ft width 144 ft
---- / hdg 338

Location; KHLR
Day. 24 / Time. 13.23 Zulu
* Altimeter: 30.05
* Temperature: 23° c. 73.4°f.
* Wind from: 170° Speed 04 kn.
Dewpoint: 21° c.
Visibility: 10 Statute Miles.
Clouds: Broken 800 ft.

KHLR 241323Z AUTO 17004KT 10SM BKN008 23/21 A3005 RMK AO2 SLP166


Wind From 170°
Speed 04 kn.

 
 
jpsmedia.com for Web Design SOUNDCLOUD worldairports.se 2018   terms of use